Weather History for KVLL - March, 2014

Change the Weather History Date:

Thursday, March 13, 2014

  Actual Average (KDET) Record (KDET)
Temperature  
Mean Temperature 14 °F -  
Max Temperature 24 °F 42 °F 73 °F (1990)
Min Temperature 4 °F 28 °F - (1997)
Degree Days  
Heating Degree Days 51    
Moisture  
Dew Point 2 °F    
Average Humidity 58    
Maximum Humidity 76    
Minimum Humidity 36    
Precipitation  
Precipitation 0.00 in - - ()
Sea Level Pressure  
Sea Level Pressure 30.07 in    
Wind  
Wind Speed 7 mph (WSW)    
Max Wind Speed 15 mph    
Max Gust Speed 20 mph    
Visibility 10 miles    
Events      
Averages and records for this station are not official NWS values.
T = Trace of Precipitation, MM = Missing Value Source: NWS Daily Summary

Daily Weather History Graph

Daily Weather History Graph

Search for Another Location

Airport or City:

Trip Planner

Search our weather history database for the weather conditions in past years. The results will help you decide how hot, cold, wet, or windy it might be!

Date:

Astronomy

Mar. 13, 2014 Rise Set
Actual Time 7:48 AM EDT 7:36 PM EDT
Civil Twilight 7:20 AM EDT 8:04 PM EDT
Nautical Twilight 6:47 AM EDT 8:37 PM EDT
Astronomical Twilight 6:14 AM EDT 9:10 PM EDT
Moon 4:59 PM EDT (3/13) 5:57 AM EDT (3/13)
Length of Visible Light 12h 44m
Length of Day
11h 48m
Waxing Gibbous, 91% of the Moon is Illuminated
Mar 13
Waxing Gibbous
Mar 16
Full
Mar 23
Last Quarter
Mar 30
New
Apr 7
First Quarter

Hourly Weather History & Observations

Time (EDT) Temp. Windchill Dew Point Humidity Pressure Visibility Wind Dir Wind Speed Gust Speed Precip Events Conditions
12:14 AM 9.9 °F 0.2 °F 1.4 °F 69% 30.01 in 10.0 mi NNW 5.8 mph - N/A   Clear
12:35 AM 9.5 °F -0.3 °F 1.4 °F 70% 30.02 in 10.0 mi NW 5.8 mph - N/A   Clear
12:55 AM 8.6 °F -2.6 °F 1.4 °F 73% 30.02 in 10.0 mi NW 6.9 mph - N/A   Clear
1:14 AM 8.2 °F -3.0 °F 1.4 °F 74% 30.02 in 10.0 mi WNW 6.9 mph - N/A   Clear
1:35 AM 7.7 °F -2.4 °F 1.4 °F 75% 30.02 in 10.0 mi WNW 5.8 mph - N/A   Clear
1:55 AM 7.7 °F -4.8 °F 1.0 °F 74% 30.02 in 10.0 mi NW 8.1 mph - N/A   Clear
2:14 AM 7.7 °F -2.4 °F 0.5 °F 72% 30.02 in 10.0 mi NW 5.8 mph - N/A   Clear
2:35 AM 8.1 °F -3.2 °F -0.4 °F 68% 30.02 in 10.0 mi NW 6.9 mph - N/A   Clear
2:55 AM 8.1 °F -4.3 °F -0.8 °F 67% 30.02 in 10.0 mi NW 8.1 mph - N/A   Clear
3:14 AM 8.1 °F -5.3 °F -1.3 °F 66% 30.02 in 10.0 mi NNW 9.2 mph - N/A   Clear
3:35 AM 8.2 °F -4.1 °F -1.3 °F 65% 30.02 in 10.0 mi NNW 8.1 mph - N/A   Clear
3:55 AM 7.7 °F -3.7 °F -1.3 °F 67% 30.03 in 10.0 mi NNW 6.9 mph - N/A   Clear
4:14 AM 7.7 °F -4.8 °F -1.3 °F 67% 30.03 in 10.0 mi NW 8.1 mph - N/A   Clear
4:35 AM 7.5 °F -6.9 °F -1.5 °F 67% 30.03 in 10.0 mi NW 10.4 mph - N/A   Clear
4:54 AM 7.5 °F -6.0 °F -1.8 °F 66% 30.03 in 10.0 mi NW 9.2 mph - N/A   Clear
5:14 AM 7.3 °F -4.1 °F -2.2 °F 65% 30.04 in 10.0 mi NW 6.9 mph - N/A   Clear
5:34 AM 6.8 °F -4.8 °F -2.2 °F 67% 30.04 in 10.0 mi NW 6.9 mph - N/A   Clear
5:54 AM 6.6 °F -5.0 °F -2.0 °F 68% 30.05 in 10.0 mi WNW 6.9 mph - N/A   Clear
6:15 AM 5.7 °F -4.8 °F -2.2 °F 70% 30.06 in 10.0 mi WNW 5.8 mph - N/A   Clear
6:34 AM 5.4 °F -6.5 °F -2.2 °F 71% 30.07 in 10.0 mi WNW 6.9 mph - N/A   Clear
6:54 AM 5.0 °F -8.1 °F -2.2 °F 72% 30.07 in 10.0 mi WNW 8.1 mph - N/A   Clear
7:15 AM 4.6 °F -8.5 °F -2.2 °F 73% 30.08 in 10.0 mi WNW 8.1 mph - N/A   Clear
7:34 AM 4.5 °F -7.6 °F -2.2 °F 74% 30.09 in 10.0 mi NW 6.9 mph - N/A   Clear
7:55 AM 4.6 °F -7.4 °F -1.8 °F 75% 30.10 in 10.0 mi NW 6.9 mph - N/A   Clear
8:15 AM 4.6 °F -4.5 °F -1.5 °F 76% 30.11 in 10.0 mi WNW 4.6 mph - N/A   Clear
8:34 AM 5.0 °F -6.9 °F -1.5 °F 75% 30.13 in 10.0 mi WNW 6.9 mph - N/A   Clear
8:55 AM 5.9 °F -3.0 °F -1.3 °F 72% 30.14 in 10.0 mi WNW 4.6 mph - N/A   Clear
9:15 AM 6.8 °F -5.9 °F -0.8 °F 71% 30.15 in 10.0 mi WNW 8.1 mph - N/A   Clear
9:34 AM 7.5 °F -1.1 °F -0.6 °F 70% 30.15 in 10.0 mi WNW 4.6 mph - N/A   Clear
9:55 AM 8.6 °F 0.1 °F 0.1 °F 68% 30.15 in 10.0 mi WNW 4.6 mph - N/A   Clear
10:14 AM 9.7 °F 3.2 °F 0.9 °F 68% 30.15 in 10.0 mi West 3.5 mph - N/A   Clear
10:35 AM 11.1 °F 4.9 °F 1.4 °F 65% 30.15 in 10.0 mi West 3.5 mph - N/A   Clear
10:55 AM 12.9 °F - 1.9 °F 62% 30.15 in 10.0 mi Calm Calm - N/A   Clear
11:14 AM 13.6 °F 6.0 °F 1.0 °F 57% 30.15 in 10.0 mi WSW 4.6 mph - N/A   Clear
11:35 AM 15.6 °F 8.3 °F 1.8 °F 54% 30.14 in 10.0 mi West 4.6 mph - N/A   Clear
11:54 AM 15.8 °F 7.2 °F 1.6 °F 54% 30.14 in 10.0 mi SSW 5.8 mph - N/A   Clear
12:15 PM 17.4 °F 10.4 °F 2.5 °F 52% 30.14 in 10.0 mi WSW 4.6 mph - N/A   Clear
12:34 PM 18.1 °F 8.9 °F 2.7 °F 51% 30.13 in 10.0 mi SSW 6.9 mph - N/A   Clear
12:55 PM 18.5 °F 9.3 °F 2.5 °F 50% 30.13 in 10.0 mi SSW 6.9 mph - N/A   Clear
1:15 PM 19.4 °F 9.5 °F 1.8 °F 46% 30.13 in 10.0 mi SW 8.1 mph - N/A   Clear
1:34 PM 20.1 °F 10.3 °F 0.5 °F 42% 30.13 in 10.0 mi SSW 8.1 mph - N/A   Clear
1:55 PM 21.2 °F 10.9 °F 2.8 °F 45% 30.12 in 10.0 mi WSW 9.2 mph - N/A   Clear
2:14 PM 21.2 °F 10.9 °F 2.7 °F 45% 30.12 in 10.0 mi WSW 9.2 mph - N/A   Clear
2:35 PM 22.3 °F 13.0 °F 1.9 °F 41% 30.10 in 10.0 mi SW 8.1 mph - N/A   Clear
2:54 PM 22.8 °F 11.5 °F 0.5 °F 38% 30.10 in 10.0 mi WSW 11.5 mph 16.1 mph N/A   Clear
3:15 PM 23.7 °F 14.0 °F 0.3 °F 36% 30.10 in 10.0 mi SW 9.2 mph - N/A   Clear
3:34 PM 24.4 °F 14.9 °F 4.3 °F 42% 30.09 in 10.0 mi WSW 9.2 mph - N/A   Clear
3:55 PM 23.9 °F 15.8 °F 3.7 °F 42% 30.08 in 10.0 mi SSW 6.9 mph - N/A   Clear
4:15 PM 24.3 °F 14.6 °F 3.0 °F 40% 30.08 in 10.0 mi SSW 9.2 mph - N/A   Clear
4:34 PM 23.9 °F 13.5 °F 4.1 °F 43% 30.07 in 10.0 mi SSW 10.4 mph - N/A   Mostly Cloudy
4:55 PM 22.8 °F 12.2 °F 4.1 °F 45% 30.07 in 10.0 mi SSW 10.4 mph - N/A   Overcast
5:15 PM 22.6 °F 10.7 °F 4.3 °F 45% 30.06 in 10.0 mi South 12.7 mph 16.1 mph N/A   Overcast
5:34 PM 22.6 °F 11.9 °F 4.5 °F 46% 30.05 in 10.0 mi SSW 10.4 mph - N/A   Overcast
5:55 PM 22.1 °F 10.6 °F 4.1 °F 46% 30.05 in 10.0 mi SW 11.5 mph 16.1 mph N/A   Overcast
6:15 PM 22.1 °F 10.6 °F 3.7 °F 45% 30.05 in 10.0 mi SSW 11.5 mph - N/A   Overcast
6:34 PM 22.1 °F 12.0 °F 3.4 °F 45% 30.05 in 10.0 mi SW 9.2 mph 17.3 mph N/A   Overcast
6:55 PM 21.9 °F 12.5 °F 4.6 °F 48% 30.05 in 10.0 mi SSW 8.1 mph - N/A   Overcast
7:15 PM 21.7 °F 10.8 °F 4.6 °F 48% 30.05 in 10.0 mi SW 10.4 mph - N/A   Overcast
7:34 PM 21.6 °F 8.8 °F 3.6 °F 46% 30.05 in 10.0 mi SW 13.8 mph 18.4 mph N/A   Overcast
7:55 PM 21.2 °F 8.3 °F 3.9 °F 47% 30.04 in 10.0 mi SW 13.8 mph 17.3 mph N/A   Overcast
8:14 PM 21.2 °F 10.1 °F 4.6 °F 49% 30.04 in 10.0 mi SW 10.4 mph 16.1 mph N/A   Overcast
8:35 PM 21.2 °F 7.8 °F 5.2 °F 50% 30.04 in 10.0 mi SSW 15.0 mph 19.6 mph N/A   Overcast
8:55 PM 21.2 °F 10.9 °F 5.9 °F 52% 30.03 in 10.0 mi SSW 9.2 mph - N/A   Overcast
9:14 PM 21.2 °F 11.7 °F 6.8 °F 54% 30.03 in 10.0 mi SSW 8.1 mph 16.1 mph N/A   Overcast
9:35 PM 21.7 °F 12.3 °F 7.7 °F 55% 30.03 in 10.0 mi SSW 8.1 mph - N/A   Overcast
9:55 PM 21.9 °F 12.5 °F 8.4 °F 56% 30.02 in 10.0 mi SSW 8.1 mph - N/A   Overcast
10:14 PM 22.1 °F 13.7 °F 8.2 °F 55% 30.02 in 10.0 mi SSW 6.9 mph - N/A   Overcast
10:35 PM 22.1 °F 13.7 °F 9.0 °F 57% 30.02 in 10.0 mi SSW 6.9 mph - N/A   Overcast
10:55 PM 22.6 °F 12.6 °F 9.0 °F 56% 30.02 in 10.0 mi SSW 9.2 mph - N/A   Overcast
11:14 PM 22.6 °F 15.3 °F 9.1 °F 56% 30.02 in 10.0 mi SSW 5.8 mph - N/A   Overcast
11:35 PM 22.8 °F 14.5 °F 9.5 °F 57% 30.01 in 10.0 mi SSW 6.9 mph - N/A   Overcast
11:55 PM 23.0 °F 13.1 °F 9.9 °F 57% 30.00 in 10.0 mi South 9.2 mph - N/A   Overcast